Time;durP1;ratioP1;P1;durP2;ratioP2;P2;SDS_P1;SDS_P2;PMS_P1;PMS_P2;Temp;Humidity;BMP_temperature;BMP_pressure;BME280_temperature;BME280_humidity;BME280_pressure;Samples;Min_cycle;Max_cycle;Signal;HPM_P1;HPM_P2
2021/06/29 00:03:01;;;;;;;11.30;10.50;;;19.30;99.90;;;;;;10388462;28;20237;-81
2021/06/29 00:08:05;;;;;;;11.33;10.17;;;19.30;99.90;;;;;;10421435;28;20230;-80
2021/06/29 00:13:08;;;;;;;10.90;10.10;;;19.40;99.90;;;;;;10402979;28;20201;-78
2021/06/29 00:18:11;;;;;;;12.67;11.83;;;19.40;99.90;;;;;;10419948;28;20295;-79
2021/06/29 00:23:13;;;;;;;13.87;12.87;;;19.50;99.90;;;;;;10396424;28;20226;-80
2021/06/29 00:28:15;;;;;;;12.13;11.13;;;19.50;99.90;;;;;;10414344;28;20232;-81
2021/06/29 00:33:19;;;;;;;11.80;10.63;;;19.50;99.90;;;;;;10416793;28;20281;-80
2021/06/29 00:38:21;;;;;;;12.40;11.50;;;19.60;99.90;;;;;;10398858;28;20325;-82
2021/06/29 00:43:23;;;;;;;10.67;9.97;;;19.60;99.90;;;;;;10416957;28;20210;-81
2021/06/29 00:48:27;;;;;;;10.80;9.77;;;19.60;99.90;;;;;;10417196;28;20712;-81
2021/06/29 00:53:29;;;;;;;10.03;9.07;;;19.60;99.90;;;;;;10417890;28;20573;-82
2021/06/29 00:58:31;;;;;;;10.33;9.63;;;19.70;99.90;;;;;;10398210;28;20295;-82
2021/06/29 01:03:35;;;;;;;10.53;9.73;;;19.70;99.90;;;;;;10414373;28;20308;-83
2021/06/29 01:08:38;;;;;;;9.13;8.23;;;19.80;99.90;;;;;;10401638;28;20233;-83
2021/06/29 01:13:43;;;;;;;10.27;9.07;;;19.80;99.90;;;;;;10420833;28;20271;-83
2021/06/29 01:18:46;;;;;;;7.70;7.10;;;19.70;99.90;;;;;;10421312;28;20913;-83
2021/06/29 01:23:53;;;;;;;7.83;7.20;;;19.80;99.90;;;;;;10390125;28;20325;-81
2021/06/29 01:29:01;;;;;;;7.13;6.63;;;19.80;99.90;;;;;;10404655;28;20324;-81
2021/06/29 01:34:04;;;;;;;7.63;7.10;;;19.80;99.90;;;;;;10419277;28;20252;-81
2021/06/29 01:39:12;;;;;;;6.90;6.40;;;19.80;99.90;;;;;;10401880;28;20229;-83
2021/06/29 01:44:20;;;;;;;8.07;7.33;;;19.80;99.90;;;;;;10402003;28;20260;-83
2021/06/29 01:49:25;;;;;;;7.17;6.70;;;19.80;99.90;;;;;;10417674;28;20233;-81
2021/06/29 01:54:29;;;;;;;7.03;6.40;;;19.80;99.90;;;;;;10374668;28;20214;-80
2021/06/29 01:59:31;;;;;;;7.00;6.50;;;19.80;99.90;;;;;;10414640;28;20283;-82
2021/06/29 02:04:33;;;;;;;7.80;7.10;;;19.60;99.90;;;;;;10398078;28;20238;-80
2021/06/29 02:09:37;;;;;;;7.97;7.37;;;19.50;99.90;;;;;;10382257;28;20214;-82
2021/06/29 02:14:39;;;;;;;7.50;6.90;;;19.40;99.90;;;;;;10416970;28;20647;-82
2021/06/29 02:19:41;;;;;;;8.60;8.00;;;19.30;99.90;;;;;;10400892;28;20206;-81
2021/06/29 02:24:44;;;;;;;7.37;6.87;;;19.30;99.90;;;;;;10408289;28;20317;-83
2021/06/29 02:29:47;;;;;;;7.83;7.20;;;19.30;99.90;;;;;;10408961;28;20216;-81
2021/06/29 02:34:49;;;;;;;8.10;7.37;;;19.20;99.90;;;;;;10408864;28;20219;-80
2021/06/29 02:39:52;;;;;;;7.13;6.67;;;19.30;99.90;;;;;;10393079;28;20297;-82
2021/06/29 02:45:00;;;;;;;8.57;7.07;;;19.30;99.90;;;;;;10412421;28;20308;-82
2021/06/29 02:50:02;;;;;;;8.03;7.53;;;19.20;99.90;;;;;;10406584;28;20674;-81
2021/06/29 02:55:09;;;;;;;8.40;7.60;;;19.20;99.90;;;;;;10388095;28;20793;-79
2021/06/29 03:00:15;;;;;;;8.40;7.90;;;19.30;99.90;;;;;;10403736;28;20206;-79
2021/06/29 03:05:17;;;;;;;8.90;8.20;;;19.30;99.90;;;;;;10403552;28;20236;-83
2021/06/29 03:10:28;;;;;;;8.70;8.10;;;19.30;99.90;;;;;;10391501;28;20217;-81
2021/06/29 03:15:39;;;;;;;8.17;7.57;;;19.30;99.90;;;;;;10396506;28;20237;-82
2021/06/29 03:20:41;;;;;;;7.53;7.03;;;19.30;99.90;;;;;;10418910;28;20194;-81
2021/06/29 03:25:44;;;;;;;8.87;7.97;;;19.20;99.90;;;;;;10400288;28;20230;-81
2021/06/29 03:30:46;;;;;;;8.20;7.63;;;19.20;99.90;;;;;;10399924;28;20288;-82
2021/06/29 03:35:48;;;;;;;8.83;8.17;;;19.20;99.90;;;;;;10399237;28;20240;-82
2021/06/29 03:40:52;;;;;;;9.20;8.50;;;19.30;99.90;;;;;;10399424;28;20217;-82
2021/06/29 03:45:54;;;;;;;8.40;7.90;;;19.30;99.90;;;;;;10399741;28;20607;-81
2021/06/29 03:50:56;;;;;;;9.33;8.63;;;19.20;99.90;;;;;;10400263;28;20801;-81
2021/06/29 03:56:00;;;;;;;13.67;12.43;;;19.20;99.90;;;;;;10403502;28;20222;-80
2021/06/29 04:01:02;;;;;;;8.50;7.90;;;19.20;99.90;;;;;;10397719;28;20591;-78
2021/06/29 04:06:04;;;;;;;9.17;8.27;;;19.20;99.90;;;;;;10381325;28;20229;-81
2021/06/29 04:11:08;;;;;;;9.27;8.37;;;19.10;99.90;;;;;;10398123;28;20244;-78
2021/06/29 04:16:10;;;;;;;8.80;8.17;;;19.10;99.90;;;;;;10396709;28;20593;-79
2021/06/29 04:21:13;;;;;;;9.83;9.13;;;19.10;99.90;;;;;;10382440;28;20210;-80
2021/06/29 04:26:17;;;;;;;8.87;8.17;;;19.10;99.90;;;;;;10399058;28;20264;-80
2021/06/29 04:31:19;;;;;;;7.93;7.43;;;19.10;99.90;;;;;;10399923;28;20473;-81
2021/06/29 04:36:22;;;;;;;10.90;9.20;;;19.20;99.90;;;;;;10399753;28;20226;-81
2021/06/29 04:41:25;;;;;;;10.37;9.47;;;19.20;99.90;;;;;;10399289;28;20899;-81
2021/06/29 04:46:27;;;;;;;12.37;11.17;;;19.20;99.90;;;;;;10417914;28;20241;-80
2021/06/29 04:51:29;;;;;;;11.23;10.33;;;19.30;99.90;;;;;;10394129;28;20206;-81
2021/06/29 04:56:33;;;;;;;11.80;10.80;;;19.40;99.90;;;;;;10417420;28;20301;-81
2021/06/29 05:01:35;;;;;;;9.50;8.90;;;19.40;99.90;;;;;;10400102;28;20226;-81
2021/06/29 05:06:37;;;;;;;10.73;9.90;;;19.50;99.90;;;;;;10399713;28;20245;-81
2021/06/29 05:11:41;;;;;;;9.27;8.57;;;19.50;99.90;;;;;;10401895;28;20297;-81
2021/06/29 05:16:43;;;;;;;9.10;8.50;;;19.60;99.90;;;;;;10421085;28;20224;-82
2021/06/29 05:21:45;;;;;;;8.97;8.40;;;19.60;99.90;;;;;;10417834;28;20296;-82
2021/06/29 05:26:50;;;;;;;9.20;8.47;;;19.70;99.90;;;;;;10457666;22;20256;-79
2021/06/29 05:31:52;;;;;;;9.63;8.83;;;19.70;99.90;;;;;;10497146;28;20213;-79
2021/06/29 06:04:42;;;;;;;8.10;7.53;;;19.80;99.90;;;;;;10501273;28;20220;-78
2021/06/29 06:09:44;;;;;;;7.47;6.97;;;19.90;99.90;;;;;;10503957;28;20204;-78
2021/06/29 06:14:46;;;;;;;7.37;6.67;;;20.00;99.90;;;;;;10503108;28;20226;-78
2021/06/29 06:19:50;;;;;;;6.77;6.33;;;20.10;99.90;;;;;;10484412;28;20208;-78
2021/06/29 06:24:52;;;;;;;6.50;6.10;;;20.10;99.90;;;;;;10503494;28;20259;-78
2021/06/29 06:29:54;;;;;;;8.40;7.80;;;20.30;99.90;;;;;;10485120;28;20237;-78
2021/06/29 06:34:58;;;;;;;7.13;6.63;;;20.50;99.90;;;;;;10501763;28;20296;-78
2021/06/29 06:40:00;;;;;;;6.67;6.00;;;20.70;99.90;;;;;;10468240;28;20228;-78
2021/06/29 06:45:02;;;;;;;6.10;5.53;;;21.00;99.90;;;;;;10502599;28;20308;-78
2021/06/29 06:50:08;;;;;;;5.90;5.40;;;21.20;99.90;;;;;;10488369;28;20208;-78
2021/06/29 06:55:10;;;;;;;6.20;5.80;;;21.40;99.90;;;;;;10483984;28;20331;-79
2021/06/29 07:00:14;;;;;;;5.30;4.80;;;21.50;99.90;;;;;;10483096;28;20212;-78
2021/06/29 07:05:17;;;;;;;5.73;5.33;;;21.70;99.90;;;;;;10482573;28;20666;-78
2021/06/29 07:10:19;;;;;;;5.50;4.40;;;21.80;99.90;;;;;;10501271;28;20254;-78
2021/06/29 07:15:22;;;;;;;4.73;4.23;;;21.90;99.90;;;;;;10501033;28;20216;-78
2021/06/29 07:20:26;;;;;;;4.40;4.10;;;22.10;99.90;;;;;;10501738;28;20262;-78
2021/06/29 07:25:28;;;;;;;4.73;4.43;;;22.30;99.90;;;;;;10501128;28;20221;-78
2021/06/29 07:30:31;;;;;;;3.90;3.60;;;22.60;99.90;;;;;;10500256;28;20197;-78
2021/06/29 07:35:34;;;;;;;3.80;3.50;;;23.00;99.90;;;;;;10501508;28;20216;-79
2021/06/29 07:40:37;;;;;;;4.23;3.93;;;23.30;99.90;;;;;;10507436;28;20287;-77
2021/06/29 07:45:39;;;;;;;2.93;2.83;;;23.80;99.90;;;;;;10500243;28;20783;-78
2021/06/29 07:50:43;;;;;;;2.77;2.67;;;24.20;99.90;;;;;;10465670;28;20303;-77
2021/06/29 07:55:45;;;;;;;2.90;2.70;;;24.50;99.90;;;;;;10480246;28;20322;-77
2021/06/29 08:00:47;;;;;;;2.50;2.27;;;24.90;99.90;;;;;;10499445;28;20212;-78
2021/06/29 08:05:51;;;;;;;3.63;2.83;;;25.50;99.90;;;;;;10498192;28;20240;-78
2021/06/29 08:10:53;;;;;;;2.80;2.70;;;26.00;99.90;;;;;;10481228;28;20697;-78
2021/06/29 08:15:55;;;;;;;3.10;2.90;;;26.40;99.90;;;;;;10481109;28;20223;-79
2021/06/29 08:20:59;;;;;;;2.70;2.13;;;26.80;99.90;;;;;;10480588;28;20648;-78
2021/06/29 08:26:02;;;;;;;3.97;2.40;;;27.20;99.90;;;;;;10496726;28;20610;-78
2021/06/29 08:31:05;;;;;;;2.47;2.27;;;27.60;99.90;;;;;;10483548;28;20247;-79
2021/06/29 08:36:09;;;;;;;2.57;2.37;;;28.10;99.90;;;;;;10465870;28;20244;-79
2021/06/29 08:41:12;;;;;;;2.20;2.10;;;28.50;99.90;;;;;;10480179;28;20299;-78
2021/06/29 08:46:14;;;;;;;2.13;2.03;;;28.70;99.90;;;;;;10464148;28;20290;-78
2021/06/29 08:51:19;;;;;;;2.57;2.20;;;29.00;99.30;;;;;;10498157;28;20258;-79
2021/06/29 08:56:21;;;;;;;2.10;1.90;;;29.10;99.90;;;;;;10497789;28;20250;-79
2021/06/29 09:01:25;;;;;;;2.30;2.20;;;29.30;98.00;;;;;;10497814;28;20246;-79
2021/06/29 09:06:34;;;;;;;2.40;2.30;;;29.40;97.60;;;;;;10497600;28;20228;-79
2021/06/29 09:11:37;;;;;;;7.93;7.17;;;29.60;97.80;;;;;;10498429;28;20196;-79
2021/06/29 09:16:39;;;;;;;2.20;2.10;;;29.20;97.10;;;;;;10496220;28;20217;-79
2021/06/29 09:21:43;;;;;;;2.53;2.33;;;29.10;97.60;;;;;;10498781;28;20691;-81
2021/06/29 09:26:45;;;;;;;2.37;2.17;;;29.50;93.90;;;;;;10499151;28;20224;-79
2021/06/29 09:31:47;;;;;;;2.10;2.00;;;29.30;95.10;;;;;;10505534;28;20204;-80
2021/06/29 09:36:51;;;;;;;4.03;2.30;;;29.10;95.20;;;;;;10493699;28;20235;-80
2021/06/29 09:42:03;;;;;;;2.63;2.43;;;28.50;93.70;;;;;;10506235;28;20322;-79
2021/06/29 09:47:23;;;;;;;2.20;2.10;;;28.40;95.60;;;;;;10487631;28;20573;-79
2021/06/29 09:52:33;;;;;;;2.73;2.53;;;29.70;93.80;;;;;;10486608;28;20304;-80
2021/06/29 09:57:35;;;;;;;2.00;1.90;;;31.40;94.30;;;;;;10507776;28;20224;-81
2021/06/29 10:02:37;;;;;;;1.90;1.80;;;32.90;87.30;;;;;;10504023;28;20723;-80
2021/06/29 10:07:41;;;;;;;4.77;1.90;;;34.70;78.30;;;;;;10503479;28;20230;-80
2021/06/29 10:12:43;;;;;;;1.87;1.77;;;36.40;67.80;;;;;;10504851;28;20672;-80
2021/06/29 10:17:46;;;;;;;2.10;2.00;;;36.20;66.40;;;;;;10486585;28;20211;-80
2021/06/29 10:22:50;;;;;;;1.90;1.80;;;37.20;63.30;;;;;;10487013;28;20238;-80
2021/06/29 10:27:53;;;;;;;2.10;2.00;;;38.40;59.40;;;;;;10502593;28;20227;-79
2021/06/29 10:32:56;;;;;;;2.07;1.97;;;36.70;57.60;;;;;;10503947;28;20211;-80
2021/06/29 10:37:59;;;;;;;3.30;2.20;;;34.70;58.40;;;;;;10503619;28;20599;-79
2021/06/29 10:43:02;;;;;;;2.17;2.07;;;33.10;63.30;;;;;;10502928;28;20291;-80
2021/06/29 10:48:22;;;;;;;2.70;2.50;;;31.80;68.30;;;;;;10468552;28;20776;-79
2021/06/29 10:53:43;;;;;;;2.50;2.40;;;30.50;68.30;;;;;;10504406;28;20299;-80
2021/06/29 10:58:47;;;;;;;2.73;2.53;;;29.40;70.70;;;;;;10502507;28;20223;-79
2021/06/29 11:03:51;;;;;;;2.50;2.30;;;28.60;74.50;;;;;;10502450;28;20204;-80
2021/06/29 11:08:57;;;;;;;2.67;2.03;;;28.30;78.80;;;;;;10488779;28;20745;-80
2021/06/29 11:13:59;;;;;;;4.73;2.63;;;28.10;75.40;;;;;;10503947;28;20204;-80
2021/06/29 11:19:02;;;;;;;2.83;2.63;;;27.70;77.90;;;;;;10478952;28;20205;-81
2021/06/29 11:24:43;;;;;;;2.60;2.50;;;27.20;75.50;;;;;;10487467;28;20209;-80
2021/06/29 11:29:46;;;;;;;2.70;2.50;;;26.70;79.10;;;;;;10335168;28;20196;-80
2021/06/29 11:34:48;;;;;;;2.80;2.60;;;26.40;81.30;;;;;;10466877;22;20224;-81
2021/06/29 11:39:59;;;;;;;2.53;2.43;;;26.30;81.60;;;;;;10478904;28;20209;-81
2021/06/29 11:45:06;;;;;;;3.20;2.47;;;26.40;82.80;;;;;;10471792;28;20298;-82
2021/06/29 11:50:23;;;;;;;2.40;2.20;;;26.80;85.70;;;;;;10476946;28;20263;-82
2021/06/29 11:55:26;;;;;;;2.43;2.33;;;27.20;83.70;;;;;;10492583;28;20224;-82
2021/06/29 12:00:31;;;;;;;4.50;3.20;;;27.40;82.00;;;;;;10490517;28;20262;-82
2021/06/29 12:05:35;;;;;;;2.53;2.43;;;27.50;84.10;;;;;;10484865;28;20216;-81
2021/06/29 12:10:41;;;;;;;2.93;2.73;;;27.50;80.80;;;;;;10471593;28;20201;-81
2021/06/29 12:15:45;;;;;;;2.20;2.10;;;27.50;81.10;;;;;;10487798;28;20204;-81
2021/06/29 12:20:49;;;;;;;2.33;2.23;;;27.50;81.10;;;;;;10491166;28;20573;-81
2021/06/29 12:25:55;;;;;;;2.50;2.40;;;27.40;83.20;;;;;;10486664;28;20224;-81
2021/06/29 12:30:59;;;;;;;3.10;2.90;;;27.40;83.00;;;;;;10494956;28;20215;-81
2021/06/29 12:36:04;;;;;;;2.80;2.60;;;27.30;83.10;;;;;;10504046;28;20292;-81
2021/06/29 12:41:10;;;;;;;2.53;2.40;;;27.30;81.50;;;;;;10502414;28;20240;-82
2021/06/29 12:46:18;;;;;;;2.10;2.00;;;27.40;81.80;;;;;;10502301;28;20220;-81
2021/06/29 12:51:20;;;;;;;2.67;2.50;;;27.40;80.70;;;;;;10500400;28;20695;-81
2021/06/29 12:56:31;;;;;;;3.17;2.73;;;27.30;82.70;;;;;;10491318;28;20232;-81
2021/06/29 13:01:36;;;;;;;3.07;2.90;;;27.30;81.80;;;;;;10500256;28;20659;-81
2021/06/29 13:06:40;;;;;;;11.50;3.43;;;27.00;87.70;;;;;;10498480;28;20212;-80
2021/06/29 13:11:56;;;;;;;11.27;5.90;;;26.20;91.60;;;;;;10485153;28;20239;-80
2021/06/29 13:17:03;;;;;;;6.87;5.40;;;24.00;93.80;;;;;;10480250;28;20192;-80
2021/06/29 13:22:07;;;;;;;9.07;4.60;;;21.90;96.40;;;;;;10488916;28;20301;-80
2021/06/29 13:27:12;;;;;;;5.60;5.17;;;20.20;99.90;;;;;;10492955;28;20255;-80
2021/06/29 13:32:19;;;;;;;4.43;4.23;;;19.40;99.90;;;;;;10480101;28;20228;-80
2021/06/29 13:37:25;;;;;;;3.47;2.70;;;19.00;99.90;;;;;;10487864;28;20201;-79
2021/06/29 13:42:29;;;;;;;3.83;3.63;;;18.90;99.90;;;;;;10478767;28;20221;-80
2021/06/29 13:47:32;;;;;;;5.07;4.50;;;18.80;99.90;;;;;;10473217;28;20275;-80
2021/06/29 13:52:36;;;;;;;4.20;3.90;;;18.70;99.90;;;;;;10473205;28;20776;-79
2021/06/29 13:57:40;;;;;;;4.27;3.93;;;18.70;99.90;;;;;;10475362;28;20232;-80
2021/06/29 14:02:42;;;;;;;3.60;3.40;;;18.60;99.90;;;;;;10474260;28;20267;-79
2021/06/29 14:07:44;;;;;;;3.90;3.60;;;18.50;99.90;;;;;;10474277;28;20290;-80
2021/06/29 14:12:59;;;;;;;4.20;4.00;;;18.30;99.90;;;;;;10472480;28;20225;-80
2021/06/29 14:18:01;;;;;;;3.33;2.60;;;18.30;99.90;;;;;;10481341;28;20188;-80
2021/06/29 14:23:12;;;;;;;3.33;3.03;;;18.10;99.90;;;;;;10473910;28;20247;-80
2021/06/29 14:28:15;;;;;;;4.20;3.90;;;18.00;99.90;;;;;;10491022;28;20282;-80
2021/06/29 14:33:18;;;;;;;4.70;4.20;;;17.90;99.90;;;;;;10489720;28;20711;-80
2021/06/29 14:38:20;;;;;;;3.80;3.50;;;17.90;99.90;;;;;;10500021;28;20192;-80
2021/06/29 14:43:24;;;;;;;4.37;4.07;;;17.80;99.90;;;;;;10500576;28;20274;-80
2021/06/29 14:48:26;;;;;;;3.90;3.70;;;17.80;99.90;;;;;;10489240;28;20308;-80
2021/06/29 14:53:28;;;;;;;4.93;4.50;;;17.80;99.90;;;;;;10485118;28;20274;-80
2021/06/29 14:58:32;;;;;;;3.67;3.47;;;17.80;99.90;;;;;;10500597;28;20200;-80
2021/06/29 15:03:40;;;;;;;4.77;4.20;;;17.90;99.90;;;;;;10499433;28;20572;-80
2021/06/29 15:08:45;;;;;;;3.70;3.50;;;17.90;99.90;;;;;;10482426;28;20545;-80
2021/06/29 15:13:49;;;;;;;4.00;3.70;;;17.90;99.90;;;;;;10498362;28;20307;-80
2021/06/29 15:18:51;;;;;;;4.20;3.90;;;17.90;99.90;;;;;;10502691;28;20189;-80
2021/06/29 15:23:53;;;;;;;4.17;3.90;;;17.90;99.90;;;;;;10505432;28;20227;-80
2021/06/29 15:28:57;;;;;;;3.07;2.87;;;18.00;99.90;;;;;;10504473;28;20315;-80
2021/06/29 15:33:59;;;;;;;3.77;3.40;;;18.10;99.90;;;;;;10496103;28;20236;-80
2021/06/29 15:39:02;;;;;;;3.50;3.20;;;18.30;99.90;;;;;;10490145;28;20296;-80
2021/06/29 15:44:05;;;;;;;3.67;3.33;;;18.60;99.90;;;;;;10510766;28;20232;-80
2021/06/29 15:49:07;;;;;;;3.03;2.83;;;18.80;99.90;;;;;;10500572;28;20267;-80
2021/06/29 15:54:09;;;;;;;2.40;2.30;;;19.00;99.90;;;;;;10492623;28;20228;-80
2021/06/29 15:59:15;;;;;;;3.10;2.80;;;19.20;99.90;;;;;;10498398;28;20205;-80
2021/06/29 16:04:17;;;;;;;2.77;2.57;;;19.40;99.90;;;;;;10498053;28;20228;-80
2021/06/29 16:09:20;;;;;;;2.90;2.53;;;19.40;99.90;;;;;;10495611;28;20262;-80
2021/06/29 16:14:23;;;;;;;2.57;2.37;;;19.40;99.90;;;;;;10497802;28;20234;-79
2021/06/29 16:19:26;;;;;;;2.47;2.30;;;19.40;99.90;;;;;;10476843;28;20201;-80
2021/06/29 16:24:28;;;;;;;2.00;1.70;;;19.30;99.90;;;;;;10490571;28;20244;-79
2021/06/29 16:29:32;;;;;;;2.10;1.90;;;19.30;99.90;;;;;;10478951;28;20707;-79
2021/06/29 16:34:34;;;;;;;2.70;2.13;;;19.40;99.90;;;;;;10492779;28;20236;-80
2021/06/29 16:39:36;;;;;;;2.33;2.13;;;19.50;99.90;;;;;;10495155;28;20250;-80
2021/06/29 16:44:40;;;;;;;3.40;1.90;;;19.70;99.90;;;;;;10494081;28;20277;-80
2021/06/29 16:49:42;;;;;;;2.27;2.17;;;19.70;99.90;;;;;;10496341;28;20223;-80
2021/06/29 16:54:45;;;;;;;1.90;1.80;;;19.70;99.90;;;;;;10495943;28;20660;-80
2021/06/29 16:59:48;;;;;;;2.10;2.00;;;19.70;99.90;;;;;;10477317;28;20204;-80
2021/06/29 17:04:50;;;;;;;2.00;1.90;;;19.70;99.90;;;;;;10494501;28;20672;-80
2021/06/29 17:09:52;;;;;;;2.00;1.90;;;19.60;99.90;;;;;;10498606;28;20745;-80
2021/06/29 17:14:56;;;;;;;2.00;1.90;;;19.70;99.90;;;;;;10500792;28;20250;-80
2021/06/29 17:19:58;;;;;;;2.00;1.90;;;19.70;99.90;;;;;;10499137;28;20212;-80
2021/06/29 17:25:00;;;;;;;2.37;2.23;;;19.60;99.90;;;;;;10500597;28;20228;-80
2021/06/29 17:30:05;;;;;;;2.30;2.20;;;19.70;99.90;;;;;;10499225;28;20316;-80
2021/06/29 17:35:09;;;;;;;2.03;1.93;;;19.70;99.90;;;;;;10500534;28;20726;-80
2021/06/29 17:40:12;;;;;;;2.93;2.73;;;19.80;99.90;;;;;;10501280;28;20204;-80
2021/06/29 17:45:15;;;;;;;3.73;1.70;;;19.80;99.90;;;;;;10501175;28;20288;-80
2021/06/29 17:50:18;;;;;;;2.37;2.00;;;19.90;99.90;;;;;;10497651;28;20260;-80
2021/06/29 17:55:20;;;;;;;2.40;2.30;;;19.80;99.90;;;;;;10511063;28;20228;-80
2021/06/29 18:00:23;;;;;;;2.53;2.33;;;19.90;99.90;;;;;;10506678;28;20734;-80
2021/06/29 18:05:25;;;;;;;2.33;2.13;;;19.90;99.90;;;;;;10510864;28;20252;-80
2021/06/29 18:10:28;;;;;;;2.33;2.23;;;20.00;99.90;;;;;;10493133;28;20258;-80
2021/06/29 18:15:31;;;;;;;18.20;16.63;;;20.00;99.90;;;;;;10487451;28;20525;-80
2021/06/29 18:20:33;;;;;;;2.23;2.13;;;20.10;99.90;;;;;;10511440;28;20204;-79
2021/06/29 18:25:36;;;;;;;4.10;3.63;;;20.10;99.90;;;;;;10509756;28;20249;-80
2021/06/29 18:30:39;;;;;;;3.43;2.17;;;20.10;99.90;;;;;;10485864;28;20232;-80
2021/06/29 18:35:41;;;;;;;2.97;2.70;;;20.10;99.90;;;;;;10500728;28;20228;-80
2021/06/29 18:40:49;;;;;;;2.20;2.10;;;20.00;99.90;;;;;;10504053;28;20212;-79
2021/06/29 18:45:53;;;;;;;3.10;2.40;;;20.00;99.90;;;;;;10502484;28;20212;-80
2021/06/29 18:50:55;;;;;;;2.47;2.37;;;19.90;99.90;;;;;;10502902;28;20230;-80
2021/06/29 18:55:57;;;;;;;2.80;2.60;;;19.90;99.90;;;;;;10506700;28;20577;-79
2021/06/29 19:01:01;;;;;;;2.67;2.47;;;19.90;99.90;;;;;;10503126;28;20746;-80
2021/06/29 19:06:03;;;;;;;3.43;2.10;;;19.90;99.90;;;;;;10500665;28;20965;-80
2021/06/29 19:11:05;;;;;;;2.60;2.40;;;19.70;99.90;;;;;;10499887;28;20258;-80
2021/06/29 19:16:09;;;;;;;2.37;2.27;;;19.60;99.90;;;;;;10502559;28;20588;-80
2021/06/29 19:21:11;;;;;;;2.80;2.57;;;19.60;99.90;;;;;;10502884;28;20224;-80
2021/06/29 19:26:13;;;;;;;2.90;2.70;;;19.60;99.90;;;;;;10489329;28;20220;-80
2021/06/29 19:31:17;;;;;;;3.00;2.80;;;19.50;99.90;;;;;;10495471;28;20232;-79
2021/06/29 19:36:19;;;;;;;2.70;2.60;;;19.40;99.90;;;;;;10493273;28;20192;-79
2021/06/29 19:41:23;;;;;;;2.87;2.53;;;19.30;99.90;;;;;;10497245;28;20252;-79
2021/06/29 19:46:26;;;;;;;2.30;2.20;;;19.30;99.90;;;;;;10500338;28;20208;-80
2021/06/29 19:51:29;;;;;;;2.43;2.23;;;19.20;99.90;;;;;;10500476;28;20236;-80
2021/06/29 19:56:34;;;;;;;2.40;2.30;;;19.20;99.90;;;;;;10499914;28;20201;-80
2021/06/29 20:01:37;;;;;;;3.40;2.43;;;19.20;99.90;;;;;;10500163;28;20266;-80
2021/06/29 20:06:40;;;;;;;3.10;2.80;;;19.20;99.90;;;;;;10499883;28;20225;-80
2021/06/29 20:11:43;;;;;;;5.10;3.13;;;19.10;99.90;;;;;;10502621;28;20255;-80
2021/06/29 20:16:47;;;;;;;2.53;2.30;;;19.10;99.90;;;;;;10501133;28;20207;-80
2021/06/29 20:21:49;;;;;;;2.50;2.17;;;19.00;99.90;;;;;;10496380;28;20217;-80
2021/06/29 20:26:51;;;;;;;3.00;2.50;;;19.00;99.90;;;;;;10488109;28;20216;-80
2021/06/29 20:31:55;;;;;;;3.43;2.50;;;18.80;99.90;;;;;;10500022;28;20281;-80
2021/06/29 20:36:57;;;;;;;2.50;2.40;;;18.80;99.90;;;;;;10504816;28;20220;-80
2021/06/29 20:41:59;;;;;;;2.43;2.27;;;18.70;99.90;;;;;;10503041;28;20264;-80
2021/06/29 20:47:03;;;;;;;3.03;2.40;;;18.60;99.90;;;;;;10486566;28;20697;-80
2021/06/29 20:52:07;;;;;;;2.80;2.50;;;18.60;99.90;;;;;;10505674;28;20224;-80
2021/06/29 20:57:09;;;;;;;2.47;2.37;;;18.60;99.90;;;;;;10503035;28;20214;-80
2021/06/29 21:02:13;;;;;;;2.67;2.57;;;18.60;99.90;;;;;;10501375;28;20302;-80
2021/06/29 21:07:15;;;;;;;2.53;2.40;;;18.60;99.90;;;;;;10492036;28;20228;-80
2021/06/29 21:12:19;;;;;;;2.60;2.40;;;18.60;99.90;;;;;;10494040;28;20251;-79
2021/06/29 21:17:27;;;;;;;3.10;2.80;;;18.60;99.90;;;;;;10479459;28;20204;-79
2021/06/29 21:22:29;;;;;;;2.77;2.60;;;18.60;99.90;;;;;;10472021;28;20239;-79
2021/06/29 21:27:31;;;;;;;2.47;2.30;;;18.60;99.90;;;;;;10488258;28;20213;-79
2021/06/29 21:32:38;;;;;;;4.13;2.60;;;18.60;99.90;;;;;;10480522;28;20237;-79
2021/06/29 21:37:43;;;;;;;2.50;2.30;;;18.60;99.90;;;;;;10477267;28;20287;-79
2021/06/29 21:42:49;;;;;;;2.60;2.40;;;18.60;99.90;;;;;;10499717;28;20619;-79
2021/06/29 21:47:53;;;;;;;2.03;1.93;;;18.60;99.90;;;;;;10489598;28;20308;-80
2021/06/29 21:52:55;;;;;;;2.30;2.20;;;18.70;99.90;;;;;;10484043;28;20235;-80
2021/06/29 21:57:57;;;;;;;2.93;2.27;;;18.70;99.90;;;;;;10504227;28;20197;-81
2021/06/29 22:03:01;;;;;;;2.20;2.10;;;18.70;99.90;;;;;;10498577;28;20427;-82
2021/06/29 22:08:04;;;;;;;2.20;2.10;;;18.70;99.90;;;;;;10487695;28;20228;-81
2021/06/29 22:13:11;;;;;;;2.20;2.10;;;18.70;99.90;;;;;;10498125;28;20231;-81
2021/06/29 22:18:14;;;;;;;2.10;2.00;;;18.70;99.90;;;;;;10502877;28;20250;-81
2021/06/29 22:23:17;;;;;;;2.10;2.00;;;18.70;99.90;;;;;;10503243;28;20239;-82
2021/06/29 22:28:20;;;;;;;2.93;2.40;;;18.70;99.90;;;;;;10505477;28;20311;-81
2021/06/29 22:33:24;;;;;;;2.57;2.43;;;18.70;99.90;;;;;;10503440;28;20298;-81
2021/06/29 22:38:26;;;;;;;2.67;2.47;;;18.70;99.90;;;;;;10502943;28;20209;-81
2021/06/29 22:43:28;;;;;;;2.30;2.20;;;18.70;99.90;;;;;;10504957;28;20312;-81
2021/06/29 22:48:32;;;;;;;2.90;2.00;;;18.70;99.90;;;;;;10504355;28;20230;-81
2021/06/29 22:53:34;;;;;;;2.67;2.53;;;18.70;99.90;;;;;;10505953;28;20688;-81
2021/06/29 22:58:37;;;;;;;2.37;2.17;;;18.70;99.90;;;;;;10488212;28;20207;-81
2021/06/29 23:03:41;;;;;;;2.53;2.33;;;18.70;99.90;;;;;;10502591;28;20301;-81
2021/06/29 23:08:43;;;;;;;2.20;2.10;;;18.60;99.90;;;;;;10504272;28;20232;-81
2021/06/29 23:13:45;;;;;;;2.40;2.23;;;18.60;99.90;;;;;;10505413;28;20825;-81
2021/06/29 23:18:49;;;;;;;2.17;2.07;;;18.60;99.90;;;;;;10489717;28;20240;-81
2021/06/29 23:23:51;;;;;;;3.03;2.37;;;18.50;99.90;;;;;;10498699;28;20221;-81
2021/06/29 23:28:53;;;;;;;3.73;2.00;;;18.40;99.90;;;;;;10506207;28;20221;-82
2021/06/29 23:33:57;;;;;;;2.30;2.20;;;18.20;99.90;;;;;;10527242;22;20247;-79
2021/06/29 23:38:59;;;;;;;1.80;1.70;;;18.20;99.90;;;;;;10542809;28;20287;-80
2021/06/29 23:44:02;;;;;;;2.27;2.17;;;18.20;99.90;;;;;;10541991;28;20220;-80
2021/06/29 23:49:05;;;;;;;2.10;2.00;;;18.20;99.90;;;;;;10543279;28;20227;-79
2021/06/29 23:54:07;;;;;;;1.80;1.70;;;18.10;99.90;;;;;;10544284;28;20601;-79
2021/06/29 23:59:09;;;;;;;2.60;1.77;;;18.20;99.90;;;;;;10544862;28;20703;-79
